Time;durP1;ratioP1;P1;durP2;ratioP2;P2;SDS_P1;SDS_P2;PMS_P1;PMS_P2;Temp;Humidity;BMP_temperature;BMP_pressure;BME280_temperature;BME280_humidity;BME280_pressure;Samples;Min_cycle;Max_cycle;Signal;HPM_P1;HPM_P2
2023/03/29 00:02:01;;;;;;;6.32;1.85;;;6.50;1.00;;;;;;4996234;28;20479;-75
2023/03/29 00:04:32;;;;;;;6.88;2.38;;;6.50;1.00;;;;;;4991035;28;20046;-74
2023/03/29 00:07:03;;;;;;;5.13;1.77;;;6.50;1.00;;;;;;4998383;28;20034;-76
2023/03/29 00:09:31;;;;;;;2.70;1.80;;;6.40;1.00;;;;;;5012507;28;20383;-75
2023/03/29 00:11:58;;;;;;;22.10;11.90;;;6.40;1.00;;;;;;4985683;28;20034;-82
2023/03/29 00:14:25;;;;;;;9.70;5.57;;;6.40;1.00;;;;;;4996643;28;20387;-75
2023/03/29 00:16:52;;;;;;;3.40;1.75;;;6.50;1.00;;;;;;4998450;28;20046;-75
2023/03/29 00:19:18;;;;;;;4.00;1.63;;;6.40;1.00;;;;;;4996074;28;20034;-77
2023/03/29 00:21:44;;;;;;;2.33;1.20;;;6.50;1.00;;;;;;5005625;28;20038;-74
2023/03/29 00:24:10;;;;;;;6.25;1.67;;;6.40;1.00;;;;;;4999893;28;20042;-74
2023/03/29 00:26:36;;;;;;;5.10;1.63;;;6.40;1.00;;;;;;4986677;28;20041;-75
2023/03/29 00:29:02;;;;;;;2.13;1.33;;;6.50;1.00;;;;;;5000137;28;20062;-75
2023/03/29 00:31:28;;;;;;;5.40;3.08;;;6.50;1.00;;;;;;5002198;28;20046;-74
2023/03/29 00:33:55;;;;;;;8.98;3.97;;;6.50;1.00;;;;;;4992678;28;20037;-81
2023/03/29 00:36:22;;;;;;;5.75;3.88;;;6.40;1.00;;;;;;5001927;28;20035;-74
2023/03/29 00:38:48;;;;;;;6.78;4.82;;;6.40;1.00;;;;;;4998967;28;20369;-74
2023/03/29 00:41:14;;;;;;;8.20;4.28;;;6.40;1.00;;;;;;5003876;28;20039;-74
2023/03/29 00:43:58;;;;;;;4.88;2.35;;;6.30;1.00;;;;;;4999545;28;20038;-74
2023/03/29 00:46:25;;;;;;;2.80;1.67;;;6.30;1.00;;;;;;5002958;28;20045;-74
2023/03/29 00:48:53;;;;;;;7.88;3.15;;;6.30;1.00;;;;;;4999128;28;20502;-74
2023/03/29 00:51:23;;;;;;;5.78;2.25;;;6.30;1.00;;;;;;4985140;28;20058;-74
2023/03/29 00:53:54;;;;;;;3.90;1.70;;;6.30;1.00;;;;;;4995284;28;20042;-79
2023/03/29 00:56:33;;;;;;;4.00;2.17;;;6.30;1.00;;;;;;4984974;28;20277;-74
2023/03/29 00:59:11;;;;;;;19.80;10.73;;;6.30;1.00;;;;;;5000774;28;20030;-83
2023/03/29 01:01:46;;;;;;;22.52;16.50;;;6.30;1.00;;;;;;4994699;28;20031;-73
2023/03/29 01:04:31;;;;;;;14.45;7.85;;;6.30;1.00;;;;;;4997625;28;20056;-74
2023/03/29 01:07:03;;;;;;;18.88;10.40;;;6.30;1.00;;;;;;5010131;28;20041;-81
2023/03/29 01:09:33;;;;;;;40.95;22.88;;;6.30;1.00;;;;;;5003288;28;20034;-74
2023/03/29 01:12:04;;;;;;;69.82;40.58;;;6.30;1.00;;;;;;4985549;28;20054;-83
2023/03/29 01:14:41;;;;;;;32.58;18.20;;;6.30;1.00;;;;;;4980946;28;20118;-74
2023/03/29 01:17:08;;;;;;;31.05;18.63;;;6.30;1.00;;;;;;5008236;28;20498;-74
2023/03/29 01:19:41;;;;;;;37.85;21.52;;;6.30;1.00;;;;;;4996926;28;20043;-73
2023/03/29 01:22:28;;;;;;;96.40;48.00;;;6.30;1.00;;;;;;5007157;28;20033;-74
2023/03/29 01:24:54;;;;;;;24.17;11.80;;;6.30;1.00;;;;;;5006467;28;20042;-74
2023/03/29 01:27:50;;;;;;;22.38;11.00;;;6.30;1.00;;;;;;4999022;28;20061;-74
2023/03/29 01:30:22;;;;;;;69.80;34.55;;;6.40;1.00;;;;;;4995954;28;20325;-74
2023/03/29 01:33:22;;;;;;;99.97;46.08;;;6.40;1.00;;;;;;5000222;28;20039;-74
2023/03/29 01:36:13;;;;;;;59.03;28.23;;;6.40;1.00;;;;;;4985888;28;20050;-74
2023/03/29 01:38:51;;;;;;;351.50;183.23;;;6.40;1.00;;;;;;4995671;28;20049;-74
2023/03/29 01:41:17;;;;;;;169.93;78.28;;;6.50;1.00;;;;;;4997360;28;20107;-74
2023/03/29 01:44:01;;;;;;;444.55;239.18;;;6.40;1.00;;;;;;4989338;28;20054;-79
2023/03/29 01:46:33;;;;;;;246.13;117.28;;;6.50;1.00;;;;;;5000842;28;20379;-73
2023/03/29 01:49:10;;;;;;;47.28;20.60;;;6.50;1.00;;;;;;4995103;28;20037;-80
2023/03/29 01:51:43;;;;;;;212.25;104.72;;;6.50;99.90;;;;;;5005267;28;20030;-74
2023/03/29 01:54:19;;;;;;;400.38;202.05;;;6.50;99.90;;;;;;4984774;28;20058;-74
2023/03/29 01:56:48;;;;;;;110.78;55.22;;;6.50;99.90;;;;;;5009089;28;20038;-74
2023/03/29 01:59:19;;;;;;;30.10;15.60;;;6.60;99.90;;;;;;5000044;28;20038;-74
2023/03/29 02:01:48;;;;;;;;;;;6.60;99.90;;;;;;5001310;28;20041;-75
2023/03/29 02:04:18;;;;;;;18.33;10.77;;;6.50;99.90;;;;;;4987204;28;19914;-75
2023/03/29 02:06:46;;;;;;;13.70;8.27;;;6.50;99.90;;;;;;4994628;28;20042;-77
2023/03/29 02:09:13;;;;;;;8.55;4.68;;;6.50;99.90;;;;;;5002512;28;20380;-74
2023/03/29 02:11:42;;;;;;;7.63;3.85;;;6.50;99.90;;;;;;4994709;28;20046;-74
2023/03/29 02:14:08;;;;;;;7.05;3.45;;;6.50;99.90;;;;;;5003016;28;20049;-74
2023/03/29 02:16:37;;;;;;;3.55;2.22;;;6.50;99.90;;;;;;5000759;28;20033;-74
2023/03/29 02:19:06;;;;;;;5.45;2.67;;;6.60;99.90;;;;;;4970113;28;20038;-76
2023/03/29 02:21:47;;;;;;;6.78;2.05;;;6.60;99.90;;;;;;5005477;28;20485;-74
2023/03/29 02:24:17;;;;;;;8.38;1.65;;;6.60;99.90;;;;;;4981190;28;20042;-74
2023/03/29 02:26:43;;;;;;;5.95;3.17;;;6.60;99.90;;;;;;4985832;28;20038;-74
2023/03/29 02:29:09;;;;;;;4.45;1.50;;;6.60;99.90;;;;;;5003511;28;20042;-74
2023/03/29 02:31:42;;;;;;;3.15;1.85;;;6.60;99.90;;;;;;4999152;28;20022;-74
2023/03/29 02:34:20;;;;;;;5.53;1.95;;;6.60;99.90;;;;;;4996000;28;20054;-75
2023/03/29 02:36:55;;;;;;;4.53;1.98;;;6.60;99.90;;;;;;4993309;28;20410;-74
2023/03/29 02:39:24;;;;;;;4.78;1.65;;;6.60;99.90;;;;;;4985113;28;20034;-74
2023/03/29 02:41:52;;;;;;;4.75;1.90;;;6.60;99.90;;;;;;4984365;28;20061;-75
2023/03/29 02:44:23;;;;;;;3.20;2.20;;;6.60;99.90;;;;;;4997450;28;20050;-74
2023/03/29 02:46:54;;;;;;;3.47;1.77;;;6.60;99.90;;;;;;5000261;28;20054;-75
2023/03/29 02:49:21;;;;;;;3.33;1.80;;;6.60;99.90;;;;;;4997451;28;20047;-75
2023/03/29 02:51:51;;;;;;;6.05;1.90;;;6.50;99.90;;;;;;4998032;28;20042;-75
2023/03/29 02:54:20;;;;;;;5.00;2.40;;;6.50;99.90;;;;;;5000706;28;20049;-75
2023/03/29 02:56:53;;;;;;;3.67;2.40;;;6.50;99.90;;;;;;4983053;28;20038;-74
2023/03/29 02:59:21;;;;;;;6.18;2.38;;;6.40;99.90;;;;;;4991595;28;20045;-74
2023/03/29 03:01:48;;;;;;;6.05;3.15;;;6.40;1.00;;;;;;5007274;28;20053;-74
2023/03/29 03:04:17;;;;;;;5.97;3.28;;;6.40;1.00;;;;;;4984666;28;20041;-74
2023/03/29 03:06:43;;;;;;;7.32;4.75;;;6.40;1.00;;;;;;4984544;28;20041;-74
2023/03/29 03:09:10;;;;;;;5.10;3.58;;;6.40;1.00;;;;;;4994364;28;20045;-74
2023/03/29 03:11:39;;;;;;;5.95;3.03;;;6.40;1.00;;;;;;4984327;28;20046;-75
2023/03/29 03:14:06;;;;;;;5.88;2.80;;;6.50;99.90;;;;;;4983594;28;20049;-77
2023/03/29 03:16:34;;;;;;;7.00;3.60;;;6.50;1.00;;;;;;4984353;28;20046;-74
2023/03/29 03:19:00;;;;;;;12.13;5.30;;;6.50;99.90;;;;;;4977416;28;20468;-74
2023/03/29 03:21:27;;;;;;;4.80;2.70;;;6.60;99.90;;;;;;4981697;28;20494;-75
2023/03/29 03:23:54;;;;;;;8.57;3.90;;;6.60;1.00;;;;;;4977832;28;20057;-74
2023/03/29 03:26:22;;;;;;;4.90;2.50;;;6.60;99.90;;;;;;4979267;28;20053;-74
2023/03/29 03:28:48;;;;;;;4.85;2.17;;;6.60;99.90;;;;;;4995550;28;20388;-74
2023/03/29 03:31:34;;;;;;;4.20;2.42;;;6.60;99.90;;;;;;5002536;28;20045;-74
2023/03/29 03:34:13;;;;;;;4.55;2.13;;;6.60;99.90;;;;;;4996963;28;20050;-74
2023/03/29 03:36:46;;;;;;;3.47;2.08;;;6.60;99.90;;;;;;5012932;28;20379;-74
2023/03/29 03:39:13;;;;;;;33.65;18.55;;;6.70;99.90;;;;;;5009428;28;20042;-75
2023/03/29 03:41:39;;;;;;;42.95;19.90;;;6.80;99.90;;;;;;5003235;28;20053;-75
2023/03/29 03:44:05;;;;;;;281.30;128.57;;;6.80;99.90;;;;;;5002438;28;20040;-80
2023/03/29 03:46:32;;;;;;;81.82;36.15;;;6.80;99.90;;;;;;4991037;28;20042;-74
2023/03/29 03:48:59;;;;;;;58.30;30.42;;;6.90;99.90;;;;;;5014369;28;20046;-74
2023/03/29 03:51:31;;;;;;;53.08;34.58;;;6.90;99.90;;;;;;4992380;28;20039;-74
2023/03/29 03:53:57;;;;;;;21.77;14.50;;;6.90;99.90;;;;;;5004147;28;20522;-74
2023/03/29 03:56:36;;;;;;;28.58;23.90;;;7.00;99.90;;;;;;4997861;28;20041;-75
2023/03/29 03:59:21;;;;;;;17.30;14.35;;;7.00;99.90;;;;;;5004101;28;20049;-75
2023/03/29 04:02:00;;;;;;;12.18;8.63;;;6.90;99.90;;;;;;5010009;28;20046;-75
2023/03/29 04:04:27;;;;;;;12.20;10.98;;;6.90;99.90;;;;;;5005118;28;20038;-75
2023/03/29 04:07:11;;;;;;;12.93;11.63;;;6.80;99.90;;;;;;5012028;28;20502;-75
2023/03/29 04:09:56;;;;;;;8.52;6.68;;;6.80;99.90;;;;;;5003088;28;20483;-75
2023/03/29 04:12:38;;;;;;;7.10;5.57;;;6.70;99.90;;;;;;5010338;28;20046;-75
2023/03/29 04:15:07;;;;;;;11.90;10.93;;;6.60;99.90;;;;;;5000509;28;20419;-79
2023/03/29 04:17:34;;;;;;;7.28;6.68;;;6.50;99.90;;;;;;5003871;28;20372;-74
2023/03/29 04:20:17;;;;;;;5.50;4.80;;;6.50;99.90;;;;;;5025141;28;20049;-74
2023/03/29 04:22:44;;;;;;;3.63;2.45;;;6.40;1.00;;;;;;4998299;28;20050;-75
2023/03/29 04:25:10;;;;;;;4.65;1.85;;;6.30;1.00;;;;;;4999896;28;20057;-75
2023/03/29 04:27:50;;;;;;;5.72;2.10;;;6.30;1.00;;;;;;5016605;28;20057;-74
2023/03/29 04:30:42;;;;;;;3.20;1.70;;;6.20;1.00;;;;;;4958787;28;20049;-74
2023/03/29 04:33:14;;;;;;;4.80;2.58;;;6.10;1.00;;;;;;5004270;28;20503;-74
2023/03/29 04:35:43;;;;;;;3.75;1.38;;;6.10;1.00;;;;;;4980282;28;20491;-74
2023/03/29 04:38:15;;;;;;;4.55;1.90;;;6.00;1.00;;;;;;4985813;28;20054;-74
2023/03/29 04:40:42;;;;;;;5.43;1.75;;;6.00;1.00;;;;;;4992241;28;20041;-74
2023/03/29 04:43:16;;;;;;;4.22;1.92;;;5.90;1.00;;;;;;4999348;28;20145;-74
2023/03/29 04:45:54;;;;;;;2.53;1.52;;;5.90;1.00;;;;;;4995926;28;20395;-75
2023/03/29 04:48:38;;;;;;;3.17;1.35;;;6.00;1.00;;;;;;5009970;28;20039;-75
2023/03/29 04:51:05;;;;;;;4.22;2.13;;;6.10;1.00;;;;;;4999996;28;20038;-75
2023/03/29 04:53:33;;;;;;;3.38;1.75;;;6.10;1.00;;;;;;4988212;28;20054;-75
2023/03/29 04:55:59;;;;;;;4.47;1.83;;;6.10;1.00;;;;;;4993899;28;20046;-74
2023/03/29 04:58:48;;;;;;;6.88;2.78;;;6.20;1.00;;;;;;4992088;28;20034;-75
2023/03/29 05:01:15;;;;;;;6.13;1.92;;;6.30;1.00;;;;;;4985028;28;20049;-75
2023/03/29 05:03:49;;;;;;;4.53;2.10;;;6.30;1.00;;;;;;4983840;28;20042;-75
2023/03/29 05:06:22;;;;;;;4.15;1.83;;;6.30;1.00;;;;;;4978497;28;20049;-75
2023/03/29 05:08:49;;;;;;;40.03;19.42;;;6.30;1.00;;;;;;5000357;28;20046;-75
2023/03/29 05:11:26;;;;;;;120.07;63.40;;;6.30;1.00;;;;;;4977621;28;20047;-75
2023/03/29 05:13:56;;;;;;;29.98;16.77;;;6.40;1.00;;;;;;4999514;28;20054;-76
2023/03/29 05:16:25;;;;;;;16.55;9.20;;;6.40;1.00;;;;;;4986162;28;20057;-75
2023/03/29 05:18:54;;;;;;;17.42;11.93;;;6.40;1.00;;;;;;4991413;28;20054;-74
2023/03/29 05:21:25;;;;;;;38.58;26.35;;;6.50;1.00;;;;;;5000701;28;20043;-75
2023/03/29 05:23:52;;;;;;;14.77;9.77;;;6.50;1.00;;;;;;4982369;28;20437;-75
2023/03/29 05:26:36;;;;;;;27.42;20.08;;;6.40;1.00;;;;;;4994929;28;20031;-75
2023/03/29 05:29:04;;;;;;;22.77;15.55;;;6.50;1.00;;;;;;4985443;28;20042;-76
2023/03/29 05:31:31;;;;;;;64.22;44.67;;;6.40;1.00;;;;;;5017254;28;20047;-76
2023/03/29 05:33:57;;;;;;;25.20;18.15;;;6.50;1.00;;;;;;5021503;28;20392;-76
2023/03/29 05:36:27;;;;;;;20.77;18.77;;;6.60;1.00;;;;;;5004640;28;20418;-76
2023/03/29 05:38:53;;;;;;;9.68;8.52;;;6.70;1.00;;;;;;5004184;28;20471;-77
2023/03/29 05:41:23;;;;;;;6.20;5.38;;;6.70;1.00;;;;;;5004095;28;20376;-79
2023/03/29 05:44:08;;;;;;;6.35;3.15;;;6.80;1.00;;;;;;5007510;28;20068;-77
2023/03/29 05:46:35;;;;;;;5.53;3.25;;;6.80;1.00;;;;;;5001616;28;20047;-76
2023/03/29 05:49:03;;;;;;;7.20;3.15;;;6.90;1.00;;;;;;5000968;28;20475;-76
2023/03/29 05:51:47;;;;;;;6.05;3.70;;;7.00;1.00;;;;;;5023061;28;20046;-76
2023/03/29 05:54:14;;;;;;;6.65;3.13;;;7.00;99.90;;;;;;5004105;28;20053;-80
2023/03/29 05:56:40;;;;;;;6.05;3.45;;;7.10;99.90;;;;;;5005568;28;20057;-76
2023/03/29 05:59:07;;;;;;;4.97;2.88;;;7.10;99.90;;;;;;4999614;28;20587;-76
2023/03/29 06:01:34;;;;;;;5.32;2.67;;;7.10;99.90;;;;;;4999293;28;20045;-77
2023/03/29 06:04:05;;;;;;;4.45;2.45;;;7.20;99.90;;;;;;4999591;28;20042;-77
2023/03/29 06:06:48;;;;;;;6.10;3.05;;;7.30;99.90;;;;;;5004982;28;20030;-77
2023/03/29 06:09:14;;;;;;;7.05;2.72;;;7.60;99.90;;;;;;5003240;28;20046;-78
2023/03/29 06:11:51;;;;;;;5.35;2.38;;;7.70;99.90;;;;;;4999611;28;20051;-76
2023/03/29 06:14:23;;;;;;;5.85;2.70;;;7.70;99.90;;;;;;5014433;28;20049;-76
2023/03/29 06:16:55;;;;;;;6.97;3.05;;;7.90;99.90;;;;;;4996184;28;20046;-76
2023/03/29 06:19:23;;;;;;;7.40;2.88;;;8.20;99.90;;;;;;5001455;28;20042;-76
2023/03/29 06:21:51;;;;;;;10.38;4.85;;;8.40;99.90;;;;;;5007604;28;20395;-77
2023/03/29 06:24:23;;;;;;;8.88;4.90;;;8.50;99.90;;;;;;5005342;28;20069;-77
2023/03/29 06:26:56;;;;;;;8.23;3.72;;;8.70;99.90;;;;;;4996856;28;20400;-77
2023/03/29 06:29:22;;;;;;;8.55;4.65;;;8.90;99.90;;;;;;5005944;28;20057;-77
2023/03/29 06:31:49;;;;;;;10.43;6.50;;;9.00;99.90;;;;;;4999698;28;20053;-77
2023/03/29 06:34:47;;;;;;;16.73;7.80;;;9.10;99.90;;;;;;4991121;28;20053;-76
2023/03/29 06:37:32;;;;;;;10.80;7.60;;;9.40;99.90;;;;;;5006710;28;20049;-77
2023/03/29 06:40:20;;;;;;;6.13;4.65;;;9.50;99.90;;;;;;5006138;28;20047;-77
2023/03/29 06:42:47;;;;;;;3.97;3.00;;;9.60;99.90;;;;;;5002757;28;20068;-77
2023/03/29 06:45:36;;;;;;;7.80;6.47;;;9.70;99.90;;;;;;4991989;28;20053;-77
2023/03/29 06:48:07;;;;;;;8.80;4.10;;;9.60;99.90;;;;;;5008329;28;20052;-76
2023/03/29 06:50:35;;;;;;;5.38;3.17;;;9.60;99.90;;;;;;5003411;28;20050;-74
2023/03/29 06:53:10;;;;;;;6.95;2.72;;;9.60;99.90;;;;;;5005115;28;20041;-78
2023/03/29 06:55:38;;;;;;;5.80;2.60;;;9.60;99.90;;;;;;5019454;28;20395;-79
2023/03/29 06:58:24;;;;;;;4.45;2.30;;;9.60;99.90;;;;;;5013230;28;20519;-74
2023/03/29 07:00:52;;;;;;;8.95;2.35;;;9.60;99.90;;;;;;5003053;28;20054;-77
2023/03/29 07:03:33;;;;;;;6.32;2.72;;;9.60;99.90;;;;;;5019507;28;20458;-76
2023/03/29 07:06:08;;;;;;;5.07;2.85;;;9.50;99.90;;;;;;5026798;28;20483;-76
2023/03/29 07:08:46;;;;;;;4.95;2.53;;;9.50;99.90;;;;;;5003551;28;20126;-76
2023/03/29 07:11:35;;;;;;;4.80;2.00;;;9.50;99.90;;;;;;5005729;28;20038;-77
2023/03/29 07:14:16;;;;;;;5.80;2.20;;;9.60;99.90;;;;;;4992707;28;20046;-81
2023/03/29 07:16:45;;;;;;;10.88;2.22;;;9.90;99.90;;;;;;4979130;28;20491;-76
2023/03/29 07:19:18;;;;;;;6.53;2.03;;;10.20;99.90;;;;;;5006249;28;20034;-77
2023/03/29 07:21:52;;;;;;;6.35;3.00;;;10.30;99.90;;;;;;5001527;28;20045;-78
2023/03/29 07:24:20;;;;;;;6.78;2.72;;;10.30;99.90;;;;;;4994567;28;20049;-77
2023/03/29 07:26:51;;;;;;;6.65;3.78;;;10.30;99.90;;;;;;5013710;28;20057;-77
2023/03/29 07:29:17;;;;;;;7.10;2.40;;;10.30;99.90;;;;;;4995064;28;20041;-77
2023/03/29 07:31:44;;;;;;;3.80;2.28;;;10.00;99.90;;;;;;4981093;28;20399;-78
2023/03/29 07:34:30;;;;;;;4.07;2.20;;;9.90;99.90;;;;;;5009335;28;20053;-76
2023/03/29 07:36:58;;;;;;;7.72;3.53;;;9.90;99.90;;;;;;5013584;28;20066;-76
2023/03/29 07:39:25;;;;;;;4.85;2.13;;;9.90;99.90;;;;;;5020774;28;20048;-76
2023/03/29 07:42:11;;;;;;;9.43;5.85;;;10.00;99.90;;;;;;4994576;28;20046;-77
2023/03/29 07:44:37;;;;;;;5.80;2.30;;;10.00;99.90;;;;;;4996510;28;20046;-76
2023/03/29 07:47:05;;;;;;;6.00;2.25;;;10.10;99.90;;;;;;5016206;28;20050;-76
2023/03/29 07:49:31;;;;;;;3.92;2.95;;;10.10;99.90;;;;;;5002944;28;20468;-74
2023/03/29 07:51:59;;;;;;;5.28;1.77;;;10.00;99.90;;;;;;4998503;28;20049;-75
2023/03/29 07:54:25;;;;;;;5.63;2.28;;;10.10;99.90;;;;;;4996835;28;20513;-75
2023/03/29 07:57:14;;;;;;;4.07;2.15;;;10.20;99.90;;;;;;5000746;28;20038;-75
2023/03/29 07:59:45;;;;;;;5.07;2.90;;;10.20;99.90;;;;;;5003313;28;20033;-76
2023/03/29 08:02:18;;;;;;;7.78;2.75;;;10.20;99.90;;;;;;5018438;28;20041;-76
2023/03/29 08:04:46;;;;;;;8.00;2.20;;;10.30;99.90;;;;;;5004769;28;20483;-75
2023/03/29 08:07:35;;;;;;;6.20;1.60;;;10.50;99.90;;;;;;4999524;28;20068;-76
2023/03/29 08:10:17;;;;;;;6.50;2.00;;;10.60;99.90;;;;;;5000419;28;20042;-77
2023/03/29 08:13:07;;;;;;;5.82;2.55;;;10.60;99.90;;;;;;4968682;28;20483;-75
2023/03/29 08:15:52;;;;;;;6.25;3.90;;;10.70;99.90;;;;;;5018521;28;20514;-75
2023/03/29 08:18:44;;;;;;;6.25;2.35;;;10.70;99.90;;;;;;5004764;28;20044;-75
2023/03/29 08:21:13;;;;;;;5.38;2.60;;;10.80;99.90;;;;;;4981159;28;20046;-74
2023/03/29 08:23:42;;;;;;;4.13;2.30;;;10.80;99.90;;;;;;5007129;28;20364;-74
2023/03/29 08:26:19;;;;;;;8.18;2.88;;;10.90;99.90;;;;;;5000585;28;20404;-75
2023/03/29 08:28:47;;;;;;;5.47;2.55;;;11.00;99.90;;;;;;5002451;28;20045;-74
2023/03/29 08:31:15;;;;;;;5.30;2.33;;;11.00;99.90;;;;;;5016049;28;20053;-80
2023/03/29 08:33:43;;;;;;;10.25;2.88;;;11.10;99.90;;;;;;5020411;28;20041;-74
2023/03/29 08:36:31;;;;;;;4.05;2.40;;;11.30;99.90;;;;;;4994370;28;20395;-75
2023/03/29 08:39:04;;;;;;;3.83;2.40;;;11.20;99.90;;;;;;4998063;28;20050;-75
2023/03/29 08:41:51;;;;;;;4.70;2.13;;;11.20;99.90;;;;;;5000816;28;20053;-74
2023/03/29 08:44:45;;;;;;;6.10;1.92;;;11.20;99.90;;;;;;5000256;28;20053;-78
2023/03/29 08:47:20;;;;;;;5.57;1.67;;;11.10;99.90;;;;;;5000428;28;20053;-74
2023/03/29 08:49:54;;;;;;;3.30;2.03;;;11.20;99.90;;;;;;5004244;28;20493;-74
2023/03/29 08:52:34;;;;;;;3.80;1.70;;;11.20;99.90;;;;;;4997306;28;20052;-76
2023/03/29 08:55:24;;;;;;;5.13;2.25;;;11.30;99.90;;;;;;5002147;28;20042;-76
2023/03/29 08:58:27;;;;;;;4.60;1.95;;;11.50;99.90;;;;;;5000935;28;20046;-75
2023/03/29 09:00:57;;;;;;;3.10;1.80;;;11.40;99.90;;;;;;4999142;28;20177;-77
2023/03/29 09:04:05;;;;;;;3.00;1.63;;;11.40;99.90;;;;;;5006771;28;20041;-74
2023/03/29 09:06:46;;;;;;;4.75;2.08;;;11.60;99.90;;;;;;5001905;28;20423;-75
2023/03/29 09:09:22;;;;;;;7.90;2.78;;;11.70;99.90;;;;;;5000910;28;20046;-75
2023/03/29 09:12:23;;;;;;;7.18;1.92;;;11.60;99.90;;;;;;5002341;28;20396;-76
2023/03/29 09:14:55;;;;;;;3.90;1.75;;;11.60;99.90;;;;;;5004540;28;20403;-77
2023/03/29 09:17:40;;;;;;;6.80;2.35;;;11.70;99.90;;;;;;5020370;28;20050;-75
2023/03/29 09:20:36;;;;;;;5.55;2.97;;;11.80;99.90;;;;;;5005246;28;20101;-75
2023/03/29 09:24:00;;;;;;;3.90;2.30;;;11.60;99.90;;;;;;5006302;28;20056;-75
2023/03/29 09:26:48;;;;;;;10.02;2.50;;;11.50;99.90;;;;;;4921846;29;20407;-75
2023/03/29 09:29:29;;;;;;;6.25;2.38;;;11.30;99.90;;;;;;4924806;29;20052;-75
2023/03/29 09:31:57;;;;;;;8.70;2.75;;;11.30;99.90;;;;;;4931546;29;20516;-75
2023/03/29 09:34:42;;;;;;;14.27;3.80;;;11.40;99.90;;;;;;4920415;29;20525;-76
2023/03/29 09:37:47;;;;;;;3.63;1.98;;;11.50;99.90;;;;;;4918582;29;20090;-75
2023/03/29 09:40:21;;;;;;;5.68;2.50;;;11.40;99.90;;;;;;4911061;29;20050;-75
2023/03/29 09:43:03;;;;;;;5.25;2.45;;;11.60;99.90;;;;;;4921126;29;20445;-73
2023/03/29 09:45:30;;;;;;;4.65;1.85;;;11.90;99.90;;;;;;4922589;29;20043;-73
2023/03/29 09:48:25;;;;;;;5.05;1.90;;;11.90;99.90;;;;;;4939749;29;20046;-73
2023/03/29 09:50:56;;;;;;;4.20;2.20;;;12.00;99.90;;;;;;4927821;29;20482;-73
2023/03/29 09:53:23;;;;;;;5.13;2.45;;;12.30;99.90;;;;;;4936919;29;20412;-73
2023/03/29 09:56:10;;;;;;;6.38;2.28;;;12.40;99.90;;;;;;4926627;28;20058;-74
2023/03/29 09:59:02;;;;;;;58.83;7.13;;;12.60;99.90;;;;;;5004919;28;20077;-72
2023/03/29 10:01:37;;;;;;;15.82;7.90;;;12.70;99.90;;;;;;5010086;28;20042;-73
2023/03/29 10:04:08;;;;;;;6.00;2.38;;;12.70;99.90;;;;;;5022543;28;20050;-74
2023/03/29 10:06:35;;;;;;;3.60;2.00;;;12.70;99.90;;;;;;4997137;28;20053;-73
2023/03/29 10:09:03;;;;;;;38.80;22.17;;;12.70;99.90;;;;;;5018659;28;20483;-72
2023/03/29 10:11:38;;;;;;;7.95;2.72;;;12.90;99.90;;;;;;5009902;28;20114;-73
2023/03/29 10:14:12;;;;;;;3.08;2.28;;;13.20;99.90;;;;;;4998642;28;20033;-74
2023/03/29 10:16:40;;;;;;;7.53;2.80;;;13.40;99.90;;;;;;4989927;28;20034;-73
2023/03/29 10:19:29;;;;;;;8.77;3.28;;;13.80;99.90;;;;;;4998333;28;20034;-73
2023/03/29 10:21:59;;;;;;;5.25;3.47;;;14.00;99.90;;;;;;5002895;28;20391;-74
2023/03/29 10:24:26;;;;;;;5.80;2.03;;;13.70;99.90;;;;;;5020856;28;20049;-74
2023/03/29 10:27:02;;;;;;;3.72;2.15;;;13.80;99.90;;;;;;5005808;28;20073;-73
2023/03/29 10:29:37;;;;;;;3.58;2.53;;;13.80;99.90;;;;;;4999234;28;20041;-73
2023/03/29 10:32:19;;;;;;;4.63;2.53;;;14.00;99.90;;;;;;4994116;28;20475;-73
2023/03/29 10:34:46;;;;;;;4.00;1.73;;;14.60;99.90;;;;;;5008260;28;20045;-74
2023/03/29 10:37:15;;;;;;;3.38;2.42;;;14.40;99.90;;;;;;4993141;28;20038;-73
2023/03/29 10:39:41;;;;;;;5.38;2.65;;;14.50;99.90;;;;;;4997445;28;20591;-73
2023/03/29 10:42:13;;;;;;;4.25;3.42;;;14.80;99.90;;;;;;5002215;28;20396;-74
2023/03/29 10:44:40;;;;;;;5.53;2.25;;;14.90;99.90;;;;;;5005840;28;20044;-74
2023/03/29 10:47:15;;;;;;;4.85;2.40;;;15.00;99.90;;;;;;5000474;28;20489;-75
2023/03/29 10:49:45;;;;;;;3.83;1.67;;;15.00;99.90;;;;;;5004200;28;20447;-75
2023/03/29 10:52:16;;;;;;;4.43;1.77;;;15.10;99.90;;;;;;5004248;28;20041;-74
2023/03/29 10:54:42;;;;;;;;;;;14.70;99.90;;;;;;5006313;28;20123;-74
2023/03/29 10:57:15;;;;;;;4.82;2.03;;;14.60;99.90;;;;;;5007932;28;19913;-74
2023/03/29 10:59:54;;;;;;;5.22;2.10;;;14.40;99.90;;;;;;5000122;28;20809;-73
2023/03/29 11:02:57;;;;;;;3.37;1.37;;;14.30;99.90;;;;;;4999841;28;20038;-73
2023/03/29 11:05:32;;;;;;;4.93;1.40;;;14.30;99.90;;;;;;5001289;28;20041;-78
2023/03/29 11:08:21;;;;;;;3.03;1.63;;;14.50;99.90;;;;;;4996803;28;20033;-74
2023/03/29 11:11:02;;;;;;;3.05;1.38;;;14.50;99.90;;;;;;5005154;28;20061;-75
2023/03/29 11:14:01;;;;;;;3.75;1.58;;;14.80;99.90;;;;;;5004016;28;20029;-73
2023/03/29 11:17:06;;;;;;;5.93;2.10;;;15.00;99.90;;;;;;5001741;28;20414;-73
2023/03/29 11:19:52;;;;;;;2.75;2.00;;;15.20;99.90;;;;;;4984209;28;20058;-74
2023/03/29 11:22:43;;;;;;;3.70;2.08;;;15.20;99.90;;;;;;5005229;28;20037;-74
2023/03/29 11:25:56;;;;;;;2.72;1.60;;;15.20;99.90;;;;;;5001563;28;20391;-74
2023/03/29 11:28:28;;;;;;;5.90;2.50;;;15.40;99.90;;;;;;4999613;28;20050;-73
2023/03/29 11:31:14;;;;;;;9.52;1.63;;;15.80;99.90;;;;;;5009778;28;20037;-73
2023/03/29 11:33:56;;;;;;;3.58;1.95;;;15.90;99.90;;;;;;5001122;28;20050;-72
2023/03/29 11:36:59;;;;;;;4.25;1.83;;;15.90;99.90;;;;;;4995345;28;20034;-73
2023/03/29 11:39:51;;;;;;;3.85;2.40;;;15.90;99.90;;;;;;4994762;28;20052;-72
2023/03/29 11:42:22;;;;;;;4.68;2.00;;;15.90;99.90;;;;;;5000203;28;20471;-73
2023/03/29 11:44:52;;;;;;;5.13;1.88;;;15.60;99.90;;;;;;5000690;28;20470;-73
2023/03/29 11:47:30;;;;;;;2.80;1.95;;;15.90;99.90;;;;;;5002435;28;20040;-73
2023/03/29 11:50:02;;;;;;;6.75;2.05;;;15.90;99.90;;;;;;5001151;28;20506;-72
2023/03/29 11:52:32;;;;;;;3.05;1.52;;;15.60;99.90;;;;;;5002604;28;20045;-73
2023/03/29 11:55:12;;;;;;;4.80;1.95;;;15.50;99.90;;;;;;4999882;28;20030;-73
2023/03/29 11:57:55;;;;;;;3.72;1.85;;;15.30;99.90;;;;;;4997644;28;20059;-73
2023/03/29 12:00:39;;;;;;;5.43;2.08;;;15.40;99.90;;;;;;4993942;28;20054;-73
2023/03/29 12:03:31;;;;;;;6.35;1.80;;;15.70;99.90;;;;;;4999117;28;20042;-73
2023/03/29 12:06:15;;;;;;;4.35;2.08;;;15.60;99.90;;;;;;4993288;28;20034;-73
2023/03/29 12:08:48;;;;;;;7.65;2.08;;;15.50;99.90;;;;;;5005119;28;20366;-73
2023/03/29 12:11:18;;;;;;;3.45;1.70;;;15.60;99.90;;;;;;5004791;28;20046;-73
2023/03/29 12:14:20;;;;;;;4.18;1.77;;;16.10;99.90;;;;;;5002786;28;20045;-76
2023/03/29 12:17:08;;;;;;;3.40;2.05;;;16.70;99.90;;;;;;4956690;28;20396;-73
2023/03/29 12:19:40;;;;;;;4.35;2.83;;;17.00;99.90;;;;;;5004714;28;20034;-73
2023/03/29 12:22:08;;;;;;;6.20;4.13;;;16.90;99.90;;;;;;5000239;28;20030;-73
2023/03/29 12:24:39;;;;;;;;;;;17.40;99.90;;;;;;4989207;28;20034;-74
2023/03/29 12:27:15;;;;;;;6.03;3.53;;;17.70;99.90;;;;;;5003407;28;20348;-74
2023/03/29 12:30:17;;;;;;;7.75;6.07;;;17.30;99.90;;;;;;5003240;28;20042;-73
2023/03/29 12:33:08;;;;;;;6.07;3.53;;;17.50;99.90;;;;;;5011239;28;20030;-73
2023/03/29 12:36:35;;;;;;;5.75;2.10;;;17.40;99.90;;;;;;5007968;28;20053;-73
2023/03/29 12:39:20;;;;;;;4.53;3.55;;;17.40;99.90;;;;;;5006188;28;20046;-73
2023/03/29 12:42:15;;;;;;;5.25;1.77;;;17.50;99.90;;;;;;5006464;28;20054;-74
2023/03/29 12:45:02;;;;;;;5.10;1.90;;;17.10;99.90;;;;;;4983114;28;20483;-73
2023/03/29 12:47:38;;;;;;;3.65;1.92;;;17.30;99.90;;;;;;4985268;28;20030;-73
2023/03/29 12:50:05;;;;;;;6.32;2.28;;;17.20;99.90;;;;;;5005841;28;20387;-74
2023/03/29 12:52:35;;;;;;;4.13;2.60;;;17.00;99.90;;;;;;5004550;28;20028;-75
2023/03/29 12:55:20;;;;;;;5.47;1.67;;;17.00;99.90;;;;;;4998888;28;20058;-73
2023/03/29 12:58:24;;;;;;;2.92;1.50;;;17.40;99.90;;;;;;4999756;28;20050;-73
2023/03/29 13:01:06;;;;;;;2.58;1.35;;;17.70;99.90;;;;;;4954208;28;20583;-73
2023/03/29 13:03:38;;;;;;;3.55;1.27;;;17.60;99.90;;;;;;4984547;28;20038;-76
2023/03/29 13:06:08;;;;;;;2.85;1.45;;;17.90;99.90;;;;;;5004082;28;20041;-73
2023/03/29 13:08:43;;;;;;;2.75;1.00;;;18.50;99.90;;;;;;5002362;28;20026;-74
2023/03/29 13:11:36;;;;;;;2.28;1.08;;;19.00;97.80;;;;;;4985159;28;20053;-74
2023/03/29 13:14:16;;;;;;;3.28;1.45;;;19.20;97.70;;;;;;5003751;28;20057;-73
2023/03/29 13:16:42;;;;;;;2.40;1.10;;;19.00;95.10;;;;;;5005964;28;20494;-75
2023/03/29 13:19:16;;;;;;;3.70;1.30;;;19.10;95.00;;;;;;5002682;28;20061;-73
2023/03/29 13:22:20;;;;;;;4.25;1.55;;;19.30;95.50;;;;;;5008101;28;20398;-74
2023/03/29 13:25:10;;;;;;;3.33;1.25;;;19.10;94.70;;;;;;4998092;28;20046;-75
2023/03/29 13:28:03;;;;;;;3.67;1.42;;;18.40;94.00;;;;;;4970249;28;20042;-74
2023/03/29 13:30:40;;;;;;;5.03;1.73;;;18.30;97.00;;;;;;4991485;28;20471;-75
2023/03/29 13:33:27;;;;;;;6.63;2.53;;;18.50;96.60;;;;;;5007365;28;20033;-74
2023/03/29 13:36:07;;;;;;;4.70;1.50;;;18.90;97.00;;;;;;4997431;28;20065;-74
2023/03/29 13:38:50;;;;;;;8.32;3.42;;;19.30;96.30;;;;;;5005761;28;20038;-77